createdAt,value
2023-01-03T00:00:24.208Z,8.70
2023-01-03T00:02:51.167Z,8.70
2023-01-03T00:05:18.446Z,8.70
2023-01-03T00:07:45.318Z,8.80
2023-01-03T00:10:12.116Z,8.90
2023-01-03T00:12:38.985Z,8.80
2023-01-03T00:15:06.267Z,8.80
2023-01-03T00:17:33.499Z,8.70
2023-01-03T00:20:00.560Z,8.70
2023-01-03T00:22:32.038Z,8.60
2023-01-03T00:24:59.008Z,8.60
2023-01-03T00:27:27.075Z,8.70
2023-01-03T00:29:54.438Z,8.80
2023-01-03T00:32:21.364Z,8.80
2023-01-03T00:34:48.208Z,8.90
2023-01-03T00:37:15.889Z,8.80
2023-01-03T00:39:43.840Z,8.70
2023-01-03T00:42:11.034Z,8.60
2023-01-03T00:44:38.188Z,8.50
2023-01-03T00:47:05.211Z,8.50
2023-01-03T00:49:32.475Z,8.50
2023-01-03T00:51:59.339Z,8.40
2023-01-03T00:54:26.738Z,8.50
2023-01-03T00:56:53.954Z,8.50
2023-01-03T00:59:21.911Z,8.30
2023-01-03T01:01:52.966Z,8.10
2023-01-03T01:04:31.239Z,8.10
2023-01-03T01:07:03.916Z,8.20
2023-01-03T01:09:33.327Z,8.30
2023-01-03T01:12:00.295Z,8.40
2023-01-03T01:14:29.280Z,8.40
2023-01-03T01:16:59.477Z,8.30
2023-01-03T01:19:32.451Z,8.30
2023-01-03T01:22:00.477Z,8.30
2023-01-03T01:24:27.497Z,8.30
2023-01-03T01:26:56.149Z,8.20
2023-01-03T01:29:23.183Z,8.20
2023-01-03T01:31:50.407Z,8.10
2023-01-03T01:34:18.013Z,8.10
2023-01-03T01:36:46.172Z,8.10
2023-01-03T01:39:14.655Z,8.10
2023-01-03T01:42:00.716Z,8.20
2023-01-03T01:45:02.318Z,8.10
2023-01-03T01:47:55.385Z,8.20
2023-01-03T01:50:28.177Z,8.20
2023-01-03T01:53:03.356Z,8.20
2023-01-03T01:55:41.069Z,8.20
2023-01-03T01:58:09.500Z,8.00
2023-01-03T02:00:37.610Z,7.90
2023-01-03T02:03:05.059Z,7.90
2023-01-03T02:05:35.063Z,7.90
2023-01-03T02:08:03.529Z,8.00
2023-01-03T02:11:02.750Z,8.00
2023-01-03T02:14:07.787Z,7.90
2023-01-03T02:16:56.395Z,7.90
2023-01-03T02:20:00.908Z,8.00
2023-01-03T02:23:05.221Z,7.90
2023-01-03T02:25:44.355Z,7.90
2023-01-03T02:28:23.179Z,7.90
2023-01-03T02:31:03.565Z,8.00
2023-01-03T02:33:41.603Z,8.00
2023-01-03T02:36:38.514Z,7.90
2023-01-03T02:39:40.980Z,7.80
2023-01-03T02:42:36.636Z,7.70
2023-01-03T02:45:06.406Z,7.60
2023-01-03T02:47:45.862Z,7.60
2023-01-03T02:50:15.536Z,7.60
2023-01-03T02:52:45.728Z,7.60
2023-01-03T02:55:39.987Z,7.60
2023-01-03T02:58:11.422Z,7.60
2023-01-03T03:00:48.591Z,7.50
2023-01-03T03:03:19.712Z,7.60
2023-01-03T03:05:52.988Z,7.60
2023-01-03T03:08:20.212Z,7.50
2023-01-03T03:11:06.297Z,7.50
2023-01-03T03:13:50.312Z,7.60
2023-01-03T03:16:48.201Z,7.60
2023-01-03T03:19:50.813Z,7.60
2023-01-03T03:22:48.889Z,7.60
2023-01-03T03:25:29.922Z,7.60
2023-01-03T03:28:21.956Z,7.60
2023-01-03T03:31:00.740Z,7.60
2023-01-03T03:33:31.263Z,7.50
2023-01-03T03:36:37.579Z,7.50
2023-01-03T03:39:06.241Z,7.50
2023-01-03T03:41:58.806Z,7.50
2023-01-03T03:44:54.570Z,7.50
2023-01-03T03:47:40.557Z,7.50
2023-01-03T03:50:22.520Z,7.40
2023-01-03T03:52:53.010Z,7.40
2023-01-03T03:55:30.481Z,7.40
2023-01-03T03:58:07.754Z,7.40
2023-01-03T04:00:38.533Z,7.50
2023-01-03T04:03:09.286Z,7.40
2023-01-03T04:05:49.293Z,7.40
2023-01-03T04:08:16.435Z,7.40
2023-01-03T04:10:44.208Z,7.40
2023-01-03T04:13:11.170Z,7.50
2023-01-03T04:15:38.012Z,7.40
2023-01-03T04:18:04.879Z,7.40
2023-01-03T04:20:31.690Z,7.40
2023-01-03T04:22:58.619Z,7.40
2023-01-03T04:25:25.875Z,7.40
2023-01-03T04:27:52.644Z,7.40
2023-01-03T04:30:20.059Z,7.30
2023-01-03T04:32:46.870Z,7.30
2023-01-03T04:35:13.645Z,7.30
2023-01-03T04:37:40.451Z,7.20
2023-01-03T04:40:07.693Z,7.20
2023-01-03T04:42:53.429Z,7.20
2023-01-03T04:45:20.249Z,7.20
2023-01-03T04:47:47.205Z,7.20
2023-01-03T04:50:14.244Z,7.30
2023-01-03T04:52:41.073Z,7.20
2023-01-03T04:55:08.301Z,7.20
2023-01-03T04:57:36.382Z,7.20
2023-01-03T05:00:04.813Z,7.20
2023-01-03T05:02:31.633Z,7.10
2023-01-03T05:04:58.977Z,7.20
2023-01-03T05:07:28.535Z,7.30
2023-01-03T05:09:55.347Z,7.30
2023-01-03T05:12:22.367Z,7.30
2023-01-03T05:14:49.150Z,7.20
2023-01-03T05:17:18.981Z,7.20
2023-01-03T05:20:05.659Z,7.10
2023-01-03T05:22:51.506Z,7.00
2023-01-03T05:25:37.556Z,7.00
2023-01-03T05:28:04.824Z,7.00
2023-01-03T05:30:31.689Z,7.00
2023-01-03T05:32:58.535Z,7.10
2023-01-03T05:35:25.810Z,7.10
2023-01-03T05:37:55.681Z,7.10
2023-01-03T05:40:22.451Z,7.20
2023-01-03T05:42:49.538Z,7.20
2023-01-03T05:45:16.509Z,7.10
2023-01-03T05:47:43.501Z,7.10
2023-01-03T05:50:10.745Z,7.10
2023-01-03T05:52:38.050Z,7.20
2023-01-03T05:55:05.727Z,7.20
2023-01-03T05:57:35.674Z,7.20
2023-01-03T06:00:04.718Z,7.10
2023-01-03T06:02:31.550Z,7.10
2023-01-03T06:04:58.354Z,7.10
2023-01-03T06:07:25.274Z,7.20
2023-01-03T06:09:52.095Z,7.20
2023-01-03T06:12:18.923Z,7.20
2023-01-03T06:14:45.715Z,7.20
2023-01-03T06:17:30.908Z,7.20
2023-01-03T06:19:57.732Z,7.20
2023-01-03T06:22:24.538Z,7.30
2023-01-03T06:24:51.744Z,7.30
2023-01-03T06:27:18.598Z,7.30
2023-01-03T06:29:45.402Z,7.30
2023-01-03T06:32:12.170Z,7.10
2023-01-03T06:34:39.411Z,7.20
2023-01-03T06:37:06.566Z,7.10
2023-01-03T06:39:33.590Z,7.10
2023-01-03T06:42:20.723Z,7.00
2023-01-03T06:45:07.554Z,7.00
2023-01-03T06:48:00.416Z,7.00
2023-01-03T06:50:46.203Z,7.10
2023-01-03T06:53:15.952Z,7.20
2023-01-03T06:55:44.452Z,7.30
2023-01-03T06:58:13.292Z,7.40
2023-01-03T07:00:42.939Z,7.40
2023-01-03T07:03:11.602Z,7.50
2023-01-03T07:05:38.993Z,7.50
2023-01-03T07:08:05.912Z,6.60
2023-01-03T07:10:33.624Z,7.60
2023-01-03T07:13:20.278Z,7.60
2023-01-03T07:15:47.319Z,7.60
2023-01-03T07:18:14.714Z,7.60
2023-01-03T07:20:45.326Z,7.80
2023-01-03T07:23:13.748Z,7.90
2023-01-03T07:25:41.981Z,8.00
2023-01-03T07:28:11.498Z,8.00
2023-01-03T07:30:40.887Z,8.10
2023-01-03T07:33:10.044Z,8.10
2023-01-03T07:35:37.468Z,8.30
2023-01-03T07:38:05.321Z,8.40
2023-01-03T07:40:32.992Z,8.60
2023-01-03T07:43:18.819Z,8.80
2023-01-03T07:45:47.071Z,9.20
2023-01-03T07:48:15.184Z,9.50
2023-01-03T07:50:42.487Z,9.70
2023-01-03T07:53:09.800Z,9.80
2023-01-03T07:55:37.880Z,9.90
2023-01-03T07:58:04.895Z,10.00
2023-01-03T08:00:32.204Z,10.10
2023-01-03T08:02:59.585Z,10.20
2023-01-03T08:05:26.592Z,10.40
2023-01-03T08:07:56.023Z,10.30
2023-01-03T08:10:42.143Z,10.20
2023-01-03T08:13:18.942Z,10.00
2023-01-03T08:15:57.775Z,10.10
2023-01-03T08:18:29.193Z,10.20
2023-01-03T08:20:57.335Z,10.50
2023-01-03T08:23:25.128Z,10.50
2023-01-03T08:25:52.780Z,10.70
2023-01-03T08:28:19.976Z,10.60
2023-01-03T08:30:49.578Z,11.10
2023-01-03T08:38:41.763Z,11.80
2023-01-03T08:41:10.519Z,12.10
2023-01-03T08:43:41.304Z,12.10
2023-01-03T08:46:11.573Z,12.20
2023-01-03T08:54:11.769Z,12.40
2023-01-03T08:56:40.191Z,11.70
2023-01-03T09:02:00.683Z,13.10
2023-01-03T09:07:44.940Z,14.20
2023-01-03T09:10:11.996Z,14.90
2023-01-03T09:18:00.209Z,16.30
2023-01-03T09:20:59.188Z,16.70
2023-01-03T09:26:15.377Z,17.40
2023-01-03T09:32:16.214Z,17.80
2023-01-03T09:44:12.036Z,17.90
2023-01-03T09:46:40.081Z,17.90
2023-01-03T09:49:08.084Z,17.90
2023-01-03T09:54:46.518Z,18.30
2023-01-03T09:57:39.480Z,18.60
2023-01-03T10:00:47.114Z,18.60
2023-01-03T10:03:51.597Z,18.80
2023-01-03T10:12:08.869Z,19.50
2023-01-03T10:15:25.331Z,20.00
2023-01-03T10:23:24.067Z,20.40
2023-01-03T10:25:52.482Z,20.90
2023-01-03T10:28:24.282Z,21.50
2023-01-03T10:31:18.519Z,22.10
2023-01-03T10:33:48.054Z,22.20
2023-01-03T10:36:17.391Z,22.60
2023-01-03T10:38:52.007Z,23.10
2023-01-03T10:41:41.592Z,23.20
2023-01-03T10:44:27.888Z,23.70
2023-01-03T10:47:01.544Z,23.70
2023-01-03T10:49:31.812Z,24.20
2023-01-03T10:52:37.353Z,24.50
2023-01-03T10:55:13.277Z,24.80
2023-01-03T10:57:49.020Z,24.30
2023-01-03T11:00:33.367Z,23.80
2023-01-03T11:03:12.495Z,23.50
2023-01-03T11:05:42.091Z,24.00
2023-01-03T11:08:35.583Z,24.20
2023-01-03T11:11:03.586Z,24.90
2023-01-03T11:13:41.914Z,25.80
2023-01-03T11:16:19.788Z,26.60
2023-01-03T11:19:03.099Z,27.00
2023-01-03T11:21:45.980Z,27.10
2023-01-03T11:24:33.583Z,28.10
2023-01-03T11:27:18.968Z,29.10
2023-01-03T11:30:27.423Z,29.80
2023-01-03T11:33:29.106Z,30.90
2023-01-03T11:35:56.880Z,31.50
2023-01-03T11:38:52.640Z,31.50
2023-01-03T11:41:42.280Z,31.60
2023-01-03T11:44:28.549Z,31.70
2023-01-03T11:47:14.759Z,31.90
2023-01-03T11:50:19.821Z,32.20
2023-01-03T11:53:18.044Z,32.90
2023-01-03T11:56:18.918Z,32.90
2023-01-03T11:59:26.380Z,32.70
2023-01-03T12:02:16.887Z,32.00
2023-01-03T12:04:56.277Z,32.70
2023-01-03T12:07:48.035Z,32.40
2023-01-03T12:10:24.777Z,33.50
2023-01-03T12:13:00.400Z,33.50
2023-01-03T12:15:40.402Z,32.90
2023-01-03T12:18:16.839Z,33.20
2023-01-03T12:20:56.056Z,32.80
2023-01-03T12:23:48.927Z,32.40
2023-01-03T12:26:17.359Z,32.40
2023-01-03T12:29:01.226Z,31.70
2023-01-03T12:31:34.247Z,31.60
2023-01-03T12:34:37.745Z,31.70
2023-01-03T12:37:18.666Z,32.10
2023-01-03T12:39:49.293Z,32.40
2023-01-03T12:42:39.962Z,32.70
2023-01-03T12:45:18.744Z,32.70
2023-01-03T12:48:01.104Z,32.50
2023-01-03T12:50:34.830Z,32.50
2023-01-03T12:53:14.424Z,31.10
2023-01-03T12:55:45.773Z,29.30
2023-01-03T12:58:39.248Z,28.10
2023-01-03T13:01:15.779Z,26.50
2023-01-03T13:03:50.170Z,25.20
2023-01-03T13:06:22.380Z,24.20
2023-01-03T13:08:55.372Z,23.30
2023-01-03T13:11:35.739Z,22.70
2023-01-03T13:14:22.297Z,22.20
2023-01-03T13:16:51.423Z,21.50
2023-01-03T13:19:23.875Z,21.20
2023-01-03T13:22:01.451Z,20.80
2023-01-03T13:24:51.281Z,20.60
2023-01-03T13:27:18.599Z,20.30
2023-01-03T13:29:57.424Z,19.00
2023-01-03T13:32:26.172Z,19.80
2023-01-03T13:34:59.187Z,19.80
2023-01-03T13:37:46.129Z,19.70
2023-01-03T13:43:19.020Z,19.70
2023-01-03T13:45:45.799Z,19.50
2023-01-03T13:48:21.961Z,19.50
2023-01-03T13:51:05.975Z,19.40
2023-01-03T13:53:39.546Z,19.40
2023-01-03T13:56:28.359Z,19.40
2023-01-03T13:59:02.300Z,19.30
2023-01-03T14:02:03.841Z,19.20
2023-01-03T14:04:45.748Z,19.10
2023-01-03T14:07:51.313Z,19.10
2023-01-03T14:10:33.347Z,19.10
2023-01-03T14:13:39.228Z,19.10
2023-01-03T14:16:24.471Z,19.00
2023-01-03T14:19:02.258Z,19.00
2023-01-03T14:21:46.552Z,19.00
2023-01-03T14:24:24.406Z,18.80
2023-01-03T14:26:52.235Z,18.60
2023-01-03T14:29:25.844Z,18.40
2023-01-03T14:31:55.980Z,18.30
2023-01-03T14:34:35.713Z,18.10
2023-01-03T14:37:06.003Z,18.10
2023-01-03T14:42:04.958Z,17.80
2023-01-03T14:44:34.127Z,17.80
2023-01-03T14:47:05.179Z,17.70
2023-01-03T14:49:48.442Z,17.60
2023-01-03T14:52:28.847Z,17.50
2023-01-03T14:55:03.747Z,17.40
2023-01-03T14:57:31.557Z,17.30
2023-01-03T15:00:00.523Z,17.30
2023-01-03T15:02:38.670Z,17.20
2023-01-03T15:05:26.678Z,17.00
2023-01-03T15:07:53.968Z,16.90
2023-01-03T15:10:36.688Z,16.80
2023-01-03T15:13:05.156Z,16.70
2023-01-03T15:15:39.092Z,16.60
2023-01-03T15:18:09.779Z,16.50
2023-01-03T15:20:43.727Z,16.50
2023-01-03T15:23:41.155Z,16.40
2023-01-03T15:26:18.831Z,16.30
2023-01-03T15:28:56.414Z,16.90
2023-01-03T15:31:34.570Z,16.80
2023-01-03T15:34:12.986Z,16.70
2023-01-03T15:36:40.991Z,16.50
2023-01-03T15:39:20.610Z,17.70
2023-01-03T15:44:55.019Z,17.40
2023-01-03T15:47:26.443Z,17.10
2023-01-03T15:49:57.584Z,16.90
2023-01-03T15:52:25.319Z,16.80
2023-01-03T15:54:52.330Z,16.60
2023-01-03T15:57:32.617Z,16.50
2023-01-03T16:00:04.180Z,16.30
2023-01-03T16:02:32.055Z,16.10
2023-01-03T16:04:59.075Z,16.00
2023-01-03T16:07:30.719Z,16.00
2023-01-03T16:09:58.191Z,15.90
2023-01-03T16:12:36.124Z,15.80
2023-01-03T16:15:06.285Z,15.70
2023-01-03T16:17:36.946Z,15.80
2023-01-03T16:20:04.218Z,15.70
2023-01-03T16:22:35.980Z,15.70
2023-01-03T16:25:05.488Z,15.60
2023-01-03T16:27:35.660Z,15.50
2023-01-03T16:30:02.866Z,15.50
2023-01-03T16:32:30.894Z,15.50
2023-01-03T16:35:04.973Z,15.40
2023-01-03T16:37:32.064Z,15.30
2023-01-03T16:39:59.147Z,15.20
2023-01-03T16:42:29.373Z,15.20
2023-01-03T16:44:57.206Z,15.20
2023-01-03T16:47:32.361Z,15.10
2023-01-03T16:50:19.865Z,13.70
2023-01-03T16:52:56.148Z,15.10
2023-01-03T16:55:35.537Z,15.70
2023-01-03T16:58:03.875Z,16.60
2023-01-03T17:00:43.298Z,15.10
2023-01-03T17:03:16.272Z,16.00
2023-01-03T17:05:47.039Z,16.40
2023-01-03T17:08:43.132Z,14.00
2023-01-03T17:11:23.016Z,15.10
2023-01-03T17:14:23.408Z,15.00
2023-01-03T17:16:53.873Z,15.00
2023-01-03T17:22:20.766Z,14.80
2023-01-03T17:24:50.134Z,14.30
2023-01-03T17:27:29.349Z,14.90
2023-01-03T17:30:06.977Z,14.90
2023-01-03T17:32:34.524Z,14.80
2023-01-03T17:35:03.742Z,14.80
2023-01-03T17:37:45.393Z,14.80
2023-01-03T17:40:32.897Z,14.70
2023-01-03T17:43:00.806Z,14.70
2023-01-03T17:45:46.665Z,14.60
2023-01-03T17:48:32.493Z,14.50
2023-01-03T17:51:01.647Z,14.40
2023-01-03T17:53:29.541Z,14.40
2023-01-03T17:55:56.541Z,14.40
2023-01-03T17:58:36.187Z,14.30
2023-01-03T18:01:05.802Z,14.30
2023-01-03T18:03:32.995Z,14.30
2023-01-03T18:06:05.393Z,14.30
2023-01-03T18:08:32.859Z,14.30
2023-01-03T18:10:59.965Z,14.20
2023-01-03T18:13:32.243Z,14.20
2023-01-03T18:15:59.821Z,14.20
2023-01-03T18:18:28.466Z,14.30
2023-01-03T18:20:56.579Z,14.30
2023-01-03T18:23:36.239Z,14.30
2023-01-03T18:26:07.361Z,14.30
2023-01-03T18:28:34.417Z,14.40
2023-01-03T18:31:01.815Z,14.30
2023-01-03T18:33:28.721Z,14.30
2023-01-03T18:35:56.046Z,14.30
2023-01-03T18:38:26.061Z,14.30
2023-01-03T18:40:57.441Z,14.30
2023-01-03T18:43:29.623Z,14.30
2023-01-03T18:45:56.535Z,14.30
2023-01-03T18:48:23.456Z,14.30
2023-01-03T18:50:58.344Z,14.20
2023-01-03T18:53:29.248Z,14.20
2023-01-03T18:55:56.476Z,14.00
2023-01-03T18:58:37.034Z,13.90
2023-01-03T19:01:05.854Z,14.00
2023-01-03T19:03:34.874Z,13.90
2023-01-03T19:06:02.959Z,13.80
2023-01-03T19:08:35.461Z,13.80
2023-01-03T19:11:13.805Z,13.90
2023-01-03T19:13:50.573Z,13.80
2023-01-03T19:16:29.458Z,13.70
2023-01-03T19:18:56.884Z,13.70
2023-01-03T19:21:26.270Z,13.60
2023-01-03T19:24:17.179Z,13.70
2023-01-03T19:26:54.877Z,13.70
2023-01-03T19:29:24.868Z,13.60
2023-01-03T19:31:56.366Z,13.70
2023-01-03T19:34:26.175Z,13.70
2023-01-03T19:36:53.637Z,13.70
2023-01-03T19:39:25.882Z,13.70
2023-01-03T19:42:17.000Z,13.80
2023-01-03T19:44:44.612Z,13.80
2023-01-03T19:47:20.592Z,13.80
2023-01-03T19:49:50.634Z,13.80
2023-01-03T19:52:18.007Z,13.70
2023-01-03T19:54:45.252Z,13.60
2023-01-03T19:57:27.924Z,13.60
2023-01-03T19:59:58.610Z,13.70
2023-01-03T20:02:39.804Z,13.60
2023-01-03T20:05:34.933Z,13.60
2023-01-03T20:08:12.429Z,13.60
2023-01-03T20:10:41.551Z,13.50
2023-01-03T20:13:31.251Z,13.50
2023-01-03T20:16:04.213Z,13.50
2023-01-03T20:18:37.099Z,13.40
2023-01-03T20:21:22.505Z,13.50
2023-01-03T20:24:01.815Z,13.50
2023-01-03T20:26:31.474Z,13.50
2023-01-03T20:28:59.221Z,13.50
2023-01-03T20:31:27.110Z,13.50
2023-01-03T20:33:54.059Z,13.50
2023-01-03T20:36:32.897Z,13.50
2023-01-03T20:39:21.328Z,13.50
2023-01-03T20:41:48.599Z,13.30
2023-01-03T20:44:15.360Z,13.40
2023-01-03T20:46:42.864Z,13.40
2023-01-03T20:49:24.678Z,13.40
2023-01-03T20:51:52.562Z,13.40
2023-01-03T20:54:20.065Z,13.30
2023-01-03T20:56:47.404Z,13.30
2023-01-03T20:59:19.379Z,13.20
2023-01-03T21:01:50.459Z,13.10
2023-01-03T21:04:17.856Z,13.10
2023-01-03T21:06:45.525Z,13.20
2023-01-03T21:09:14.139Z,13.20
2023-01-03T21:11:41.119Z,13.20
2023-01-03T21:14:08.801Z,13.10
2023-01-03T21:16:48.572Z,13.10
2023-01-03T21:19:19.043Z,13.10
2023-01-03T21:21:49.237Z,13.00
2023-01-03T21:24:18.209Z,13.00
2023-01-03T21:26:45.115Z,12.90
2023-01-03T21:29:12.356Z,12.80
2023-01-03T21:31:42.219Z,12.80
2023-01-03T21:34:19.279Z,12.80
2023-01-03T21:36:46.532Z,12.80
2023-01-03T21:39:16.747Z,12.80
2023-01-03T21:42:02.520Z,12.80
2023-01-03T21:44:29.825Z,12.80
2023-01-03T21:46:56.671Z,12.90
2023-01-03T21:49:23.922Z,12.90
2023-01-03T21:51:50.830Z,12.80
2023-01-03T21:54:18.357Z,12.80
2023-01-03T21:56:46.275Z,12.80
2023-01-03T21:59:18.028Z,12.90
2023-01-03T22:02:06.691Z,12.90
2023-01-03T22:04:35.033Z,12.90
2023-01-03T22:07:02.538Z,12.90
2023-01-03T22:09:49.424Z,12.90
2023-01-03T22:12:17.672Z,12.90
2023-01-03T22:14:48.991Z,13.00
2023-01-03T22:17:18.924Z,13.00
2023-01-03T22:19:45.761Z,13.00
2023-01-03T22:22:13.087Z,13.00
2023-01-03T22:24:40.191Z,13.00
2023-01-03T22:27:07.374Z,12.90
2023-01-03T22:29:34.416Z,12.90
2023-01-03T22:32:02.097Z,12.80
2023-01-03T22:34:29.623Z,12.90
2023-01-03T22:36:56.875Z,12.80
2023-01-03T22:39:23.844Z,12.80
2023-01-03T22:41:53.132Z,12.80
2023-01-03T22:44:19.933Z,12.80
2023-01-03T22:46:46.735Z,12.80
2023-01-03T22:49:16.995Z,12.80
2023-01-03T22:51:44.306Z,12.70
2023-01-03T22:54:12.755Z,12.70
2023-01-03T22:56:39.662Z,12.60
2023-01-03T22:59:06.556Z,12.60
2023-01-03T23:01:34.232Z,12.60
2023-01-03T23:04:01.373Z,12.60
2023-01-03T23:06:29.958Z,12.60
2023-01-03T23:08:57.620Z,12.50
2023-01-03T23:11:44.847Z,12.50
2023-01-03T23:14:20.263Z,12.50
2023-01-03T23:16:48.538Z,12.50
2023-01-03T23:19:17.794Z,12.60
2023-01-03T23:21:47.258Z,12.50
2023-01-03T23:24:16.978Z,12.40
2023-01-03T23:26:44.229Z,12.40
2023-01-03T23:29:11.928Z,12.40
2023-01-03T23:31:39.382Z,12.50
2023-01-03T23:34:06.635Z,12.60
2023-01-03T23:36:33.548Z,12.60
2023-01-03T23:39:00.666Z,12.60
2023-01-03T23:41:27.443Z,12.50
2023-01-03T23:43:54.823Z,12.50
2023-01-03T23:46:23.938Z,12.50
2023-01-03T23:48:58.024Z,12.40
2023-01-03T23:51:25.701Z,12.50
2023-01-03T23:53:53.812Z,12.30
2023-01-03T23:56:23.827Z,12.30
2023-01-03T23:58:51.752Z,12.30
